sensor_id;sensor_type;location;lat;lon;timestamp;P1;durP1;ratioP1;P2;durP2;ratioP2
15968;SDS011;8085;53.472;9.794;2022-08-01T01:40:55;11.13;;;8.13;;
15968;SDS011;8085;53.472;9.794;2022-08-01T01:43:24;9.80;;;7.83;;
15968;SDS011;8085;53.472;9.794;2022-08-01T01:45:54;10.20;;;7.30;;
15968;SDS011;8085;53.472;9.794;2022-08-01T01:48:22;8.47;;;7.00;;
15968;SDS011;8085;53.472;9.794;2022-08-01T01:50:51;11.07;;;7.03;;
15968;SDS011;8085;53.472;9.794;2022-08-01T01:53:21;9.43;;;6.83;;
15968;SDS011;8085;53.472;9.794;2022-08-01T01:55:51;10.43;;;7.27;;
15968;SDS011;8085;53.472;9.794;2022-08-01T01:58:21;11.73;;;7.17;;
15968;SDS011;8085;53.472;9.794;2022-08-01T02:00:49;8.20;;;6.50;;
15968;SDS011;8085;53.472;9.794;2022-08-01T02:03:18;9.40;;;7.33;;
15968;SDS011;8085;53.472;9.794;2022-08-01T02:05:47;9.90;;;6.40;;
15968;SDS011;8085;53.472;9.794;2022-08-01T02:08:17;9.63;;;6.60;;
15968;SDS011;8085;53.472;9.794;2022-08-01T02:10:46;9.30;;;6.63;;
15968;SDS011;8085;53.472;9.794;2022-08-01T02:13:34;7.90;;;6.47;;
15968;SDS011;8085;53.472;9.794;2022-08-01T02:16:16;8.43;;;6.00;;
15968;SDS011;8085;53.472;9.794;2022-08-01T02:18:43;7.47;;;6.03;;
15968;SDS011;8085;53.472;9.794;2022-08-01T02:21:13;9.13;;;6.67;;
15968;SDS011;8085;53.472;9.794;2022-08-01T02:23:42;10.83;;;7.60;;
15968;SDS011;8085;53.472;9.794;2022-08-01T02:26:13;7.90;;;7.10;;
15968;SDS011;8085;53.472;9.794;2022-08-01T02:28:45;8.03;;;6.27;;
15968;SDS011;8085;53.472;9.794;2022-08-01T02:31:21;9.50;;;6.80;;
15968;SDS011;8085;53.472;9.794;2022-08-01T02:33:51;8.43;;;6.17;;
15968;SDS011;8085;53.472;9.794;2022-08-01T02:36:23;12.27;;;6.40;;
15968;SDS011;8085;53.472;9.794;2022-08-01T02:38:53;10.17;;;6.67;;
15968;SDS011;8085;53.472;9.794;2022-08-01T02:41:23;9.20;;;6.53;;
15968;SDS011;8085;53.472;9.794;2022-08-01T02:43:58;8.20;;;6.10;;
15968;SDS011;8085;53.472;9.794;2022-08-01T02:46:30;8.23;;;6.43;;
15968;SDS011;8085;53.472;9.794;2022-08-01T02:49:02;6.50;;;5.57;;
15968;SDS011;8085;53.472;9.794;2022-08-01T02:51:37;7.60;;;5.90;;
15968;SDS011;8085;53.472;9.794;2022-08-01T02:54:07;8.50;;;5.63;;
15968;SDS011;8085;53.472;9.794;2022-08-01T02:59:29;6.30;;;4.90;;
15968;SDS011;8085;53.472;9.794;2022-08-01T03:01:58;5.60;;;4.70;;
15968;SDS011;8085;53.472;9.794;2022-08-01T03:04:30;5.17;;;4.67;;
15968;SDS011;8085;53.472;9.794;2022-08-01T03:07:00;6.17;;;4.33;;
15968;SDS011;8085;53.472;9.794;2022-08-01T03:09:32;6.67;;;4.90;;
15968;SDS011;8085;53.472;9.794;2022-08-01T03:12:09;5.10;;;4.27;;
15968;SDS011;8085;53.472;9.794;2022-08-01T03:14:42;7.40;;;4.50;;
15968;SDS011;8085;53.472;9.794;2022-08-01T03:17:10;5.90;;;4.60;;
15968;SDS011;8085;53.472;9.794;2022-08-01T03:19:43;7.73;;;4.93;;
15968;SDS011;8085;53.472;9.794;2022-08-01T03:22:18;7.30;;;3.97;;
15968;SDS011;8085;53.472;9.794;2022-08-01T03:24:51;9.63;;;5.10;;
15968;SDS011;8085;53.472;9.794;2022-08-01T03:27:25;6.13;;;5.00;;
15968;SDS011;8085;53.472;9.794;2022-08-01T03:30:09;6.07;;;4.77;;
15968;SDS011;8085;53.472;9.794;2022-08-01T03:32:38;7.40;;;4.77;;
15968;SDS011;8085;53.472;9.794;2022-08-01T03:35:08;5.43;;;4.47;;
15968;SDS011;8085;53.472;9.794;2022-08-01T03:37:36;6.23;;;4.07;;
15968;SDS011;8085;53.472;9.794;2022-08-01T03:40:09;7.90;;;4.30;;
15968;SDS011;8085;53.472;9.794;2022-08-01T03:42:47;6.70;;;4.13;;
15968;SDS011;8085;53.472;9.794;2022-08-01T03:45:21;6.20;;;3.80;;
15968;SDS011;8085;53.472;9.794;2022-08-01T03:47:56;6.57;;;3.90;;
15968;SDS011;8085;53.472;9.794;2022-08-01T03:50:26;5.03;;;3.70;;
15968;SDS011;8085;53.472;9.794;2022-08-01T03:52:57;5.67;;;3.90;;
15968;SDS011;8085;53.472;9.794;2022-08-01T03:55:28;4.27;;;3.80;;
15968;SDS011;8085;53.472;9.794;2022-08-01T03:57:58;4.03;;;3.40;;
15968;SDS011;8085;53.472;9.794;2022-08-01T04:00:28;5.67;;;3.90;;
15968;SDS011;8085;53.472;9.794;2022-08-01T04:02:56;5.63;;;3.30;;
15968;SDS011;8085;53.472;9.794;2022-08-01T04:05:24;6.37;;;3.17;;
15968;SDS011;8085;53.472;9.794;2022-08-01T04:07:51;5.40;;;2.83;;
15968;SDS011;8085;53.472;9.794;2022-08-01T04:10:24;3.87;;;3.07;;
15968;SDS011;8085;53.472;9.794;2022-08-01T04:12:56;3.03;;;2.60;;
15968;SDS011;8085;53.472;9.794;2022-08-01T04:15:29;4.03;;;2.50;;
15968;SDS011;8085;53.472;9.794;2022-08-01T04:17:59;3.93;;;2.20;;
15968;SDS011;8085;53.472;9.794;2022-08-01T04:20:37;4.70;;;1.97;;
15968;SDS011;8085;53.472;9.794;2022-08-01T04:23:10;2.33;;;1.87;;
15968;SDS011;8085;53.472;9.794;2022-08-01T04:25:49;2.83;;;1.77;;
15968;SDS011;8085;53.472;9.794;2022-08-01T04:28:19;3.60;;;2.00;;
15968;SDS011;8085;53.472;9.794;2022-08-01T04:30:53;6.37;;;2.30;;
15968;SDS011;8085;53.472;9.794;2022-08-01T04:33:24;3.43;;;2.47;;
15968;SDS011;8085;53.472;9.794;2022-08-01T04:36:01;2.47;;;2.20;;
15968;SDS011;8085;53.472;9.794;2022-08-01T04:38:38;2.80;;;2.17;;
15968;SDS011;8085;53.472;9.794;2022-08-01T04:41:06;3.93;;;2.20;;
15968;SDS011;8085;53.472;9.794;2022-08-01T04:43:37;5.93;;;2.53;;
15968;SDS011;8085;53.472;9.794;2022-08-01T04:46:08;4.00;;;2.40;;
15968;SDS011;8085;53.472;9.794;2022-08-01T04:48:37;4.70;;;2.60;;
15968;SDS011;8085;53.472;9.794;2022-08-01T04:51:13;2.83;;;2.57;;
15968;SDS011;8085;53.472;9.794;2022-08-01T04:53:41;4.23;;;3.23;;
15968;SDS011;8085;53.472;9.794;2022-08-01T04:56:09;2.83;;;2.43;;
15968;SDS011;8085;53.472;9.794;2022-08-01T04:58:38;2.57;;;2.37;;
15968;SDS011;8085;53.472;9.794;2022-08-01T05:01:07;4.60;;;2.67;;
15968;SDS011;8085;53.472;9.794;2022-08-01T05:03:36;2.90;;;2.30;;
15968;SDS011;8085;53.472;9.794;2022-08-01T05:06:07;3.53;;;2.40;;
15968;SDS011;8085;53.472;9.794;2022-08-01T05:08:35;2.63;;;2.43;;
15968;SDS011;8085;53.472;9.794;2022-08-01T05:11:06;3.63;;;2.40;;
15968;SDS011;8085;53.472;9.794;2022-08-01T05:13:34;2.77;;;2.17;;
15968;SDS011;8085;53.472;9.794;2022-08-01T05:16:01;3.23;;;2.43;;
15968;SDS011;8085;53.472;9.794;2022-08-01T05:18:36;4.27;;;2.20;;
15968;SDS011;8085;53.472;9.794;2022-08-01T05:21:10;2.83;;;2.20;;
15968;SDS011;8085;53.472;9.794;2022-08-01T05:23:37;4.80;;;2.23;;
15968;SDS011;8085;53.472;9.794;2022-08-01T05:34:10;4.27;;;2.00;;
15968;SDS011;8085;53.472;9.794;2022-08-01T05:36:37;3.63;;;2.33;;
15968;SDS011;8085;53.472;9.794;2022-08-01T05:39:05;4.03;;;1.90;;
15968;SDS011;8085;53.472;9.794;2022-08-01T05:41:32;4.80;;;1.80;;
15968;SDS011;8085;53.472;9.794;2022-08-01T05:47:10;5.87;;;2.10;;
15968;SDS011;8085;53.472;9.794;2022-08-01T05:49:46;6.57;;;1.90;;
15968;SDS011;8085;53.472;9.794;2022-08-01T05:52:23;4.07;;;1.63;;
15968;SDS011;8085;53.472;9.794;2022-08-01T05:59:09;7.00;;;2.03;;
15968;SDS011;8085;53.472;9.794;2022-08-01T06:01:36;5.87;;;2.10;;
15968;SDS011;8085;53.472;9.794;2022-08-01T06:04:03;8.67;;;2.13;;
15968;SDS011;8085;53.472;9.794;2022-08-01T06:06:31;4.27;;;2.27;;
15968;SDS011;8085;53.472;9.794;2022-08-01T06:08:58;3.40;;;1.90;;
15968;SDS011;8085;53.472;9.794;2022-08-01T06:11:25;5.77;;;2.23;;
15968;SDS011;8085;53.472;9.794;2022-08-01T06:13:52;3.73;;;1.80;;
15968;SDS011;8085;53.472;9.794;2022-08-01T06:16:19;2.97;;;1.83;;
15968;SDS011;8085;53.472;9.794;2022-08-01T06:18:46;6.13;;;2.37;;
15968;SDS011;8085;53.472;9.794;2022-08-01T06:21:13;6.17;;;2.40;;
15968;SDS011;8085;53.472;9.794;2022-08-01T06:23:41;6.30;;;2.13;;
15968;SDS011;8085;53.472;9.794;2022-08-01T06:26:08;5.67;;;2.07;;
15968;SDS011;8085;53.472;9.794;2022-08-01T06:28:35;5.03;;;1.87;;
15968;SDS011;8085;53.472;9.794;2022-08-01T06:31:03;5.37;;;2.03;;
15968;SDS011;8085;53.472;9.794;2022-08-01T06:33:30;3.27;;;1.70;;
15968;SDS011;8085;53.472;9.794;2022-08-01T06:35:57;5.40;;;2.27;;
15968;SDS011;8085;53.472;9.794;2022-08-01T06:38:24;11.47;;;2.43;;
15968;SDS011;8085;53.472;9.794;2022-08-01T06:40:53;7.37;;;3.73;;
15968;SDS011;8085;53.472;9.794;2022-08-01T06:43:20;6.73;;;2.30;;
15968;SDS011;8085;53.472;9.794;2022-08-01T06:45:47;5.10;;;2.07;;
15968;SDS011;8085;53.472;9.794;2022-08-01T06:48:14;10.27;;;2.20;;
15968;SDS011;8085;53.472;9.794;2022-08-01T06:50:41;7.47;;;2.20;;
15968;SDS011;8085;53.472;9.794;2022-08-01T06:53:08;8.17;;;2.27;;
15968;SDS011;8085;53.472;9.794;2022-08-01T06:55:37;5.63;;;2.03;;
15968;SDS011;8085;53.472;9.794;2022-08-01T06:58:05;8.90;;;2.20;;
15968;SDS011;8085;53.472;9.794;2022-08-01T07:00:32;4.73;;;1.90;;
15968;SDS011;8085;53.472;9.794;2022-08-01T07:02:59;4.37;;;2.20;;
15968;SDS011;8085;53.472;9.794;2022-08-01T07:05:28;7.37;;;2.17;;
15968;SDS011;8085;53.472;9.794;2022-08-01T07:07:56;8.33;;;2.63;;
15968;SDS011;8085;53.472;9.794;2022-08-01T07:10:23;5.73;;;2.33;;
15968;SDS011;8085;53.472;9.794;2022-08-01T07:12:50;12.10;;;2.63;;
15968;SDS011;8085;53.472;9.794;2022-08-01T07:15:18;10.87;;;2.47;;
15968;SDS011;8085;53.472;9.794;2022-08-01T07:20:30;16.57;;;3.23;;
15968;SDS011;8085;53.472;9.794;2022-08-01T07:23:03;8.07;;;2.40;;
15968;SDS011;8085;53.472;9.794;2022-08-01T07:25:30;7.97;;;2.57;;
15968;SDS011;8085;53.472;9.794;2022-08-01T07:27:57;7.63;;;2.70;;
15968;SDS011;8085;53.472;9.794;2022-08-01T07:30:26;11.57;;;3.00;;
15968;SDS011;8085;53.472;9.794;2022-08-01T07:32:59;10.43;;;3.00;;
15968;SDS011;8085;53.472;9.794;2022-08-01T07:35:26;8.80;;;2.80;;
15968;SDS011;8085;53.472;9.794;2022-08-01T07:37:53;7.60;;;2.83;;
15968;SDS011;8085;53.472;9.794;2022-08-01T07:40:20;18.47;;;3.60;;
15968;SDS011;8085;53.472;9.794;2022-08-01T07:42:47;12.50;;;3.27;;
15968;SDS011;8085;53.472;9.794;2022-08-01T07:45:14;12.57;;;3.40;;
15968;SDS011;8085;53.472;9.794;2022-08-01T07:47:43;11.33;;;2.67;;
15968;SDS011;8085;53.472;9.794;2022-08-01T07:50:11;9.03;;;2.90;;
15968;SDS011;8085;53.472;9.794;2022-08-01T07:52:56;12.60;;;3.17;;
15968;SDS011;8085;53.472;9.794;2022-08-01T07:57:56;7.50;;;3.00;;
15968;SDS011;8085;53.472;9.794;2022-08-01T08:00:26;11.67;;;2.67;;
15968;SDS011;8085;53.472;9.794;2022-08-01T08:02:54;10.93;;;2.83;;
15968;SDS011;8085;53.472;9.794;2022-08-01T08:05:24;12.60;;;3.27;;
15968;SDS011;8085;53.472;9.794;2022-08-01T08:10:50;12.20;;;3.00;;
15968;SDS011;8085;53.472;9.794;2022-08-01T08:13:25;13.07;;;2.37;;
15968;SDS011;8085;53.472;9.794;2022-08-01T08:16:07;10.70;;;2.67;;
15968;SDS011;8085;53.472;9.794;2022-08-01T08:22:51;7.00;;;2.37;;
15968;SDS011;8085;53.472;9.794;2022-08-01T08:25:51;6.27;;;2.60;;
15968;SDS011;8085;53.472;9.794;2022-08-01T08:31:35;12.63;;;2.47;;
15968;SDS011;8085;53.472;9.794;2022-08-01T08:34:02;6.80;;;2.00;;
15968;SDS011;8085;53.472;9.794;2022-08-01T08:40:02;8.87;;;2.43;;
15968;SDS011;8085;53.472;9.794;2022-08-01T08:42:29;5.77;;;2.13;;
15968;SDS011;8085;53.472;9.794;2022-08-01T08:44:57;8.90;;;2.43;;
15968;SDS011;8085;53.472;9.794;2022-08-01T08:47:26;7.37;;;2.23;;
15968;SDS011;8085;53.472;9.794;2022-08-01T08:49:55;6.73;;;2.10;;
15968;SDS011;8085;53.472;9.794;2022-08-01T08:52:23;8.03;;;2.30;;
15968;SDS011;8085;53.472;9.794;2022-08-01T08:55:04;14.30;;;2.70;;
15968;SDS011;8085;53.472;9.794;2022-08-01T09:08:34;9.07;;;2.40;;
15968;SDS011;8085;53.472;9.794;2022-08-01T09:11:40;5.57;;;1.87;;
15968;SDS011;8085;53.472;9.794;2022-08-01T09:26:00;7.83;;;1.87;;
15968;SDS011;8085;53.472;9.794;2022-08-01T09:33:09;7.40;;;2.20;;
15968;SDS011;8085;53.472;9.794;2022-08-01T09:39:33;5.60;;;2.10;;
15968;SDS011;8085;53.472;9.794;2022-08-01T10:39:25;6.13;;;1.50;;
15968;SDS011;8085;53.472;9.794;2022-08-01T10:41:55;5.63;;;1.40;;
15968;SDS011;8085;53.472;9.794;2022-08-01T10:44:22;7.57;;;1.73;;
15968;SDS011;8085;53.472;9.794;2022-08-01T10:46:57;3.97;;;1.73;;
15968;SDS011;8085;53.472;9.794;2022-08-01T10:50:49;6.13;;;1.42;;
15968;SDS011;8085;53.472;9.794;2022-08-01T10:53:16;8.23;;;1.60;;
15968;SDS011;8085;53.472;9.794;2022-08-01T10:59:31;4.55;;;1.67;;
15968;SDS011;8085;53.472;9.794;2022-08-01T11:02:40;4.88;;;1.40;;
15968;SDS011;8085;53.472;9.794;2022-08-01T11:05:49;6.40;;;1.58;;
15968;SDS011;8085;53.472;9.794;2022-08-01T11:11:57;5.97;;;1.50;;
15968;SDS011;8085;53.472;9.794;2022-08-01T11:17:56;5.65;;;1.35;;
15968;SDS011;8085;53.472;9.794;2022-08-01T11:20:29;6.43;;;1.58;;
15968;SDS011;8085;53.472;9.794;2022-08-01T11:27:41;4.57;;;1.27;;
15968;SDS011;8085;53.472;9.794;2022-08-01T11:34:01;5.47;;;1.30;;
15968;SDS011;8085;53.472;9.794;2022-08-01T11:36:28;4.63;;;1.38;;
15968;SDS011;8085;53.472;9.794;2022-08-01T11:43:18;5.55;;;1.42;;
15968;SDS011;8085;53.472;9.794;2022-08-01T11:45:46;4.60;;;1.30;;
15968;SDS011;8085;53.472;9.794;2022-08-01T11:48:17;4.88;;;1.10;;
15968;SDS011;8085;53.472;9.794;2022-08-01T11:50:47;4.45;;;1.40;;
15968;SDS011;8085;53.472;9.794;2022-08-01T11:53:16;6.85;;;1.33;;
15968;SDS011;8085;53.472;9.794;2022-08-01T11:55:51;2.97;;;1.25;;
15968;SDS011;8085;53.472;9.794;2022-08-01T11:58:38;3.47;;;1.25;;
15968;SDS011;8085;53.472;9.794;2022-08-01T12:01:05;5.28;;;1.30;;
15968;SDS011;8085;53.472;9.794;2022-08-01T12:03:34;7.00;;;1.20;;
15968;SDS011;8085;53.472;9.794;2022-08-01T12:06:03;5.78;;;1.40;;
15968;SDS011;8085;53.472;9.794;2022-08-01T12:08:34;4.85;;;1.00;;
15968;SDS011;8085;53.472;9.794;2022-08-01T12:11:04;3.53;;;1.20;;
15968;SDS011;8085;53.472;9.794;2022-08-01T12:17:21;6.28;;;1.05;;
15968;SDS011;8085;53.472;9.794;2022-08-01T12:19:54;5.85;;;1.23;;
15968;SDS011;8085;53.472;9.794;2022-08-01T12:22:21;4.28;;;1.13;;
15968;SDS011;8085;53.472;9.794;2022-08-01T12:24:49;6.22;;;1.45;;
15968;SDS011;8085;53.472;9.794;2022-08-01T12:27:28;3.95;;;1.00;;
15968;SDS011;8085;53.472;9.794;2022-08-01T12:29:57;4.85;;;1.00;;
15968;SDS011;8085;53.472;9.794;2022-08-01T12:35:22;4.53;;;1.38;;
15968;SDS011;8085;53.472;9.794;2022-08-01T12:38:04;6.53;;;1.10;;
15968;SDS011;8085;53.472;9.794;2022-08-01T12:40:47;5.93;;;0.82;;
15968;SDS011;8085;53.472;9.794;2022-08-01T12:43:17;4.35;;;1.25;;
15968;SDS011;8085;53.472;9.794;2022-08-01T12:45:48;5.30;;;1.10;;
15968;SDS011;8085;53.472;9.794;2022-08-01T12:48:17;5.50;;;1.35;;
15968;SDS011;8085;53.472;9.794;2022-08-01T12:50:46;3.38;;;1.20;;
15968;SDS011;8085;53.472;9.794;2022-08-01T12:53:15;6.30;;;1.05;;
15968;SDS011;8085;53.472;9.794;2022-08-01T12:55:43;3.92;;;1.00;;
15968;SDS011;8085;53.472;9.794;2022-08-01T12:58:12;3.90;;;1.10;;
15968;SDS011;8085;53.472;9.794;2022-08-01T13:00:40;2.92;;;1.20;;
15968;SDS011;8085;53.472;9.794;2022-08-01T13:03:09;3.25;;;0.85;;
15968;SDS011;8085;53.472;9.794;2022-08-01T13:05:43;6.72;;;1.13;;
15968;SDS011;8085;53.472;9.794;2022-08-01T13:08:11;4.63;;;1.17;;
15968;SDS011;8085;53.472;9.794;2022-08-01T13:10:38;5.13;;;1.02;;
15968;SDS011;8085;53.472;9.794;2022-08-01T13:13:06;2.05;;;1.00;;
15968;SDS011;8085;53.472;9.794;2022-08-01T13:15:35;8.07;;;1.08;;
15968;SDS011;8085;53.472;9.794;2022-08-01T13:18:21;4.55;;;1.20;;
15968;SDS011;8085;53.472;9.794;2022-08-01T13:20:52;3.97;;;1.10;;
15968;SDS011;8085;53.472;9.794;2022-08-01T13:23:33;2.95;;;0.93;;
15968;SDS011;8085;53.472;9.794;2022-08-01T13:26:00;7.55;;;1.48;;
15968;SDS011;8085;53.472;9.794;2022-08-01T13:28:29;4.35;;;1.00;;
15968;SDS011;8085;53.472;9.794;2022-08-01T13:30:58;5.35;;;1.25;;
15968;SDS011;8085;53.472;9.794;2022-08-01T13:33:27;4.82;;;1.40;;
15968;SDS011;8085;53.472;9.794;2022-08-01T13:36:08;4.50;;;1.20;;
15968;SDS011;8085;53.472;9.794;2022-08-01T13:38:39;4.38;;;1.10;;
15968;SDS011;8085;53.472;9.794;2022-08-01T13:41:24;4.22;;;0.95;;
15968;SDS011;8085;53.472;9.794;2022-08-01T13:43:51;3.70;;;1.25;;
15968;SDS011;8085;53.472;9.794;2022-08-01T13:46:18;3.03;;;1.02;;
15968;SDS011;8085;53.472;9.794;2022-08-01T13:48:49;3.45;;;0.98;;
15968;SDS011;8085;53.472;9.794;2022-08-01T13:51:17;2.13;;;1.17;;
15968;SDS011;8085;53.472;9.794;2022-08-01T13:53:48;2.60;;;1.05;;
15968;SDS011;8085;53.472;9.794;2022-08-01T13:56:16;7.15;;;1.15;;
15968;SDS011;8085;53.472;9.794;2022-08-01T13:58:43;3.50;;;1.25;;
15968;SDS011;8085;53.472;9.794;2022-08-01T14:01:10;4.50;;;0.88;;
15968;SDS011;8085;53.472;9.794;2022-08-01T14:03:37;2.17;;;0.90;;
15968;SDS011;8085;53.472;9.794;2022-08-01T14:06:06;3.50;;;1.02;;
15968;SDS011;8085;53.472;9.794;2022-08-01T14:08:35;2.00;;;0.80;;
15968;SDS011;8085;53.472;9.794;2022-08-01T14:11:02;7.30;;;1.23;;
15968;SDS011;8085;53.472;9.794;2022-08-01T14:13:29;5.10;;;0.90;;
15968;SDS011;8085;53.472;9.794;2022-08-01T14:19:16;6.15;;;1.45;;
15968;SDS011;8085;53.472;9.794;2022-08-01T14:21:43;5.57;;;1.20;;
15968;SDS011;8085;53.472;9.794;2022-08-01T14:24:12;3.88;;;1.10;;
15968;SDS011;8085;53.472;9.794;2022-08-01T14:26:38;4.53;;;1.15;;
15968;SDS011;8085;53.472;9.794;2022-08-01T14:29:06;3.05;;;1.00;;
15968;SDS011;8085;53.472;9.794;2022-08-01T14:31:33;5.57;;;1.10;;
15968;SDS011;8085;53.472;9.794;2022-08-01T14:34:00;4.07;;;1.25;;
15968;SDS011;8085;53.472;9.794;2022-08-01T14:36:28;6.03;;;1.40;;
15968;SDS011;8085;53.472;9.794;2022-08-01T14:38:55;2.65;;;1.23;;
15968;SDS011;8085;53.472;9.794;2022-08-01T14:41:23;6.40;;;1.20;;
15968;SDS011;8085;53.472;9.794;2022-08-01T14:43:50;7.28;;;1.48;;
15968;SDS011;8085;53.472;9.794;2022-08-01T14:46:17;4.35;;;1.30;;
15968;SDS011;8085;53.472;9.794;2022-08-01T14:48:44;5.18;;;1.20;;
15968;SDS011;8085;53.472;9.794;2022-08-01T14:51:12;4.03;;;1.02;;
15968;SDS011;8085;53.472;9.794;2022-08-01T14:53:39;4.07;;;1.42;;
15968;SDS011;8085;53.472;9.794;2022-08-01T14:56:13;4.70;;;1.25;;
15968;SDS011;8085;53.472;9.794;2022-08-01T14:58:44;3.80;;;1.20;;
15968;SDS011;8085;53.472;9.794;2022-08-01T15:01:15;5.80;;;1.27;;
15968;SDS011;8085;53.472;9.794;2022-08-01T15:03:43;6.68;;;2.13;;
15968;SDS011;8085;53.472;9.794;2022-08-01T15:06:11;3.80;;;0.93;;
15968;SDS011;8085;53.472;9.794;2022-08-01T15:08:46;2.92;;;0.73;;
15968;SDS011;8085;53.472;9.794;2022-08-01T15:11:15;5.63;;;1.20;;
15968;SDS011;8085;53.472;9.794;2022-08-01T15:17:41;5.07;;;1.23;;
15968;SDS011;8085;53.472;9.794;2022-08-01T15:20:27;3.83;;;1.03;;
15968;SDS011;8085;53.472;9.794;2022-08-01T15:23:19;5.63;;;1.53;;
15968;SDS011;8085;53.472;9.794;2022-08-01T15:25:47;2.97;;;1.10;;
15968;SDS011;8085;53.472;9.794;2022-08-01T15:28:14;4.83;;;0.90;;
15968;SDS011;8085;53.472;9.794;2022-08-01T15:30:42;3.60;;;0.97;;
15968;SDS011;8085;53.472;9.794;2022-08-01T15:33:10;2.27;;;0.90;;
15968;SDS011;8085;53.472;9.794;2022-08-01T15:35:37;4.83;;;1.50;;
15968;SDS011;8085;53.472;9.794;2022-08-01T15:38:08;3.33;;;0.97;;
15968;SDS011;8085;53.472;9.794;2022-08-01T15:40:35;2.70;;;0.77;;
15968;SDS011;8085;53.472;9.794;2022-08-01T15:43:02;4.27;;;1.27;;
15968;SDS011;8085;53.472;9.794;2022-08-01T15:45:29;6.72;;;1.23;;
15968;SDS011;8085;53.472;9.794;2022-08-01T15:47:58;1.60;;;0.90;;
15968;SDS011;8085;53.472;9.794;2022-08-01T15:50:25;3.97;;;1.20;;
15968;SDS011;8085;53.472;9.794;2022-08-01T15:52:51;4.03;;;1.00;;
15968;SDS011;8085;53.472;9.794;2022-08-01T15:55:18;3.30;;;1.10;;
15968;SDS011;8085;53.472;9.794;2022-08-01T15:57:45;3.57;;;0.97;;
15968;SDS011;8085;53.472;9.794;2022-08-01T16:00:12;4.53;;;1.10;;
15968;SDS011;8085;53.472;9.794;2022-08-01T16:02:40;4.00;;;1.13;;
15968;SDS011;8085;53.472;9.794;2022-08-01T16:05:08;5.90;;;1.17;;
15968;SDS011;8085;53.472;9.794;2022-08-01T16:07:36;3.87;;;0.90;;
15968;SDS011;8085;53.472;9.794;2022-08-01T16:10:03;4.33;;;1.13;;
15968;SDS011;8085;53.472;9.794;2022-08-01T16:12:31;3.87;;;1.03;;
15968;SDS011;8085;53.472;9.794;2022-08-01T16:14:58;4.23;;;1.10;;
15968;SDS011;8085;53.472;9.794;2022-08-01T16:17:25;3.23;;;1.03;;
15968;SDS011;8085;53.472;9.794;2022-08-01T16:19:52;5.53;;;1.23;;
15968;SDS011;8085;53.472;9.794;2022-08-01T16:22:20;8.03;;;1.33;;
15968;SDS011;8085;53.472;9.794;2022-08-01T16:24:47;5.10;;;1.20;;
15968;SDS011;8085;53.472;9.794;2022-08-01T16:27:14;6.10;;;1.47;;
15968;SDS011;8085;53.472;9.794;2022-08-01T16:29:41;3.30;;;1.40;;
15968;SDS011;8085;53.472;9.794;2022-08-01T16:32:08;4.97;;;1.10;;
15968;SDS011;8085;53.472;9.794;2022-08-01T16:34:35;4.97;;;1.33;;
15968;SDS011;8085;53.472;9.794;2022-08-01T16:37:02;4.50;;;1.10;;
15968;SDS011;8085;53.472;9.794;2022-08-01T16:39:30;3.83;;;1.37;;
15968;SDS011;8085;53.472;9.794;2022-08-01T16:41:57;7.23;;;1.43;;
15968;SDS011;8085;53.472;9.794;2022-08-01T16:44:24;4.03;;;1.33;;
15968;SDS011;8085;53.472;9.794;2022-08-01T16:46:51;3.93;;;1.20;;
15968;SDS011;8085;53.472;9.794;2022-08-01T16:49:18;7.20;;;1.40;;
15968;SDS011;8085;53.472;9.794;2022-08-01T16:51:45;4.33;;;1.27;;
15968;SDS011;8085;53.472;9.794;2022-08-01T16:54:12;2.67;;;1.20;;
15968;SDS011;8085;53.472;9.794;2022-08-01T16:56:40;4.60;;;1.07;;
15968;SDS011;8085;53.472;9.794;2022-08-01T16:59:07;8.90;;;1.73;;
15968;SDS011;8085;53.472;9.794;2022-08-01T17:01:34;5.30;;;1.53;;
15968;SDS011;8085;53.472;9.794;2022-08-01T17:04:02;3.37;;;1.37;;
15968;SDS011;8085;53.472;9.794;2022-08-01T17:06:29;7.07;;;1.50;;
15968;SDS011;8085;53.472;9.794;2022-08-01T17:08:56;8.83;;;2.60;;
15968;SDS011;8085;53.472;9.794;2022-08-01T17:11:23;11.23;;;2.67;;
15968;SDS011;8085;53.472;9.794;2022-08-01T17:13:52;4.77;;;1.67;;
15968;SDS011;8085;53.472;9.794;2022-08-01T17:16:18;3.57;;;1.30;;
15968;SDS011;8085;53.472;9.794;2022-08-01T17:18:46;6.27;;;1.23;;
15968;SDS011;8085;53.472;9.794;2022-08-01T17:21:13;8.77;;;1.50;;
15968;SDS011;8085;53.472;9.794;2022-08-01T17:23:40;3.60;;;1.10;;
15968;SDS011;8085;53.472;9.794;2022-08-01T17:26:07;5.00;;;1.37;;
15968;SDS011;8085;53.472;9.794;2022-08-01T17:28:34;6.00;;;1.50;;
15968;SDS011;8085;53.472;9.794;2022-08-01T17:31:02;7.07;;;1.50;;
15968;SDS011;8085;53.472;9.794;2022-08-01T17:33:29;4.67;;;1.27;;
15968;SDS011;8085;53.472;9.794;2022-08-01T17:35:56;3.33;;;1.20;;
15968;SDS011;8085;53.472;9.794;2022-08-01T17:38:23;3.80;;;1.30;;
15968;SDS011;8085;53.472;9.794;2022-08-01T17:40:50;4.83;;;1.10;;
15968;SDS011;8085;53.472;9.794;2022-08-01T17:43:17;6.47;;;1.60;;
15968;SDS011;8085;53.472;9.794;2022-08-01T17:45:47;4.93;;;1.47;;
15968;SDS011;8085;53.472;9.794;2022-08-01T17:48:18;3.63;;;1.30;;
15968;SDS011;8085;53.472;9.794;2022-08-01T17:50:46;2.53;;;1.30;;
15968;SDS011;8085;53.472;9.794;2022-08-01T17:53:15;2.97;;;1.00;;
15968;SDS011;8085;53.472;9.794;2022-08-01T17:55:42;6.30;;;1.60;;
15968;SDS011;8085;53.472;9.794;2022-08-01T17:58:10;3.37;;;1.30;;
15968;SDS011;8085;53.472;9.794;2022-08-01T18:00:39;5.97;;;1.30;;
15968;SDS011;8085;53.472;9.794;2022-08-01T18:03:06;5.63;;;1.47;;
15968;SDS011;8085;53.472;9.794;2022-08-01T18:09:10;2.33;;;1.00;;
15968;SDS011;8085;53.472;9.794;2022-08-01T18:11:58;4.60;;;1.20;;
15968;SDS011;8085;53.472;9.794;2022-08-01T18:14:34;3.87;;;1.27;;
15968;SDS011;8085;53.472;9.794;2022-08-01T18:17:01;3.53;;;1.03;;
15968;SDS011;8085;53.472;9.794;2022-08-01T18:19:31;2.63;;;1.07;;
15968;SDS011;8085;53.472;9.794;2022-08-01T18:21:59;3.53;;;1.13;;
15968;SDS011;8085;53.472;9.794;2022-08-01T18:24:26;4.37;;;1.47;;
15968;SDS011;8085;53.472;9.794;2022-08-01T18:26:53;7.83;;;1.20;;
15968;SDS011;8085;53.472;9.794;2022-08-01T18:29:22;3.20;;;1.10;;
15968;SDS011;8085;53.472;9.794;2022-08-01T18:31:50;3.00;;;1.00;;
15968;SDS011;8085;53.472;9.794;2022-08-01T18:34:17;5.13;;;1.50;;
15968;SDS011;8085;53.472;9.794;2022-08-01T18:36:44;2.63;;;0.77;;
15968;SDS011;8085;53.472;9.794;2022-08-01T18:39:12;5.60;;;1.57;;
15968;SDS011;8085;53.472;9.794;2022-08-01T18:41:39;3.63;;;1.00;;
15968;SDS011;8085;53.472;9.794;2022-08-01T18:44:06;7.93;;;1.30;;
15968;SDS011;8085;53.472;9.794;2022-08-01T18:46:33;2.97;;;1.10;;
15968;SDS011;8085;53.472;9.794;2022-08-01T18:49:01;5.83;;;1.50;;
15968;SDS011;8085;53.472;9.794;2022-08-01T18:51:28;4.87;;;1.30;;
15968;SDS011;8085;53.472;9.794;2022-08-01T18:53:55;5.40;;;1.00;;
15968;SDS011;8085;53.472;9.794;2022-08-01T18:56:24;7.03;;;1.13;;
15968;SDS011;8085;53.472;9.794;2022-08-01T18:58:51;5.40;;;1.43;;
15968;SDS011;8085;53.472;9.794;2022-08-01T19:01:19;3.93;;;1.30;;
15968;SDS011;8085;53.472;9.794;2022-08-01T19:03:46;9.27;;;1.50;;
15968;SDS011;8085;53.472;9.794;2022-08-01T19:06:13;6.77;;;1.50;;
15968;SDS011;8085;53.472;9.794;2022-08-01T19:08:42;6.93;;;1.27;;
15968;SDS011;8085;53.472;9.794;2022-08-01T19:11:11;4.53;;;1.30;;
15968;SDS011;8085;53.472;9.794;2022-08-01T19:13:40;6.97;;;1.20;;
15968;SDS011;8085;53.472;9.794;2022-08-01T19:16:07;3.93;;;1.30;;
15968;SDS011;8085;53.472;9.794;2022-08-01T19:18:39;5.93;;;1.30;;
15968;SDS011;8085;53.472;9.794;2022-08-01T19:27:15;4.87;;;0.83;;
15968;SDS011;8085;53.472;9.794;2022-08-01T19:29:46;5.00;;;1.37;;
15968;SDS011;8085;53.472;9.794;2022-08-01T19:32:18;7.33;;;1.50;;
15968;SDS011;8085;53.472;9.794;2022-08-01T19:34:56;6.17;;;1.30;;
15968;SDS011;8085;53.472;9.794;2022-08-01T19:38:03;2.23;;;1.00;;
15968;SDS011;8085;53.472;9.794;2022-08-01T19:40:37;5.60;;;1.30;;
15968;SDS011;8085;53.472;9.794;2022-08-01T19:46:13;7.00;;;1.43;;
15968;SDS011;8085;53.472;9.794;2022-08-01T19:49:00;6.03;;;1.47;;
15968;SDS011;8085;53.472;9.794;2022-08-01T19:51:27;7.03;;;1.40;;
15968;SDS011;8085;53.472;9.794;2022-08-01T19:54:16;5.57;;;1.33;;
15968;SDS011;8085;53.472;9.794;2022-08-01T19:58:53;3.23;;;1.00;;